Virgin Islands National Park, VI

6:48 AM AST on July 24, 2014 (GMT -0400)
NorthSide (KVISTTHO7) Elev 728 ft | 18.36 °N, 64.94 °W | Change Station

Current weather conditions updated 12 seconds ago

Mostly Cloudy
Mostly Cloudy
79.2 °F
Feels Like 83 °F
N
3.0
Wind Variable Wind from ESE
Gusts 17.0 mph

Today is forecast to be Cooler than yesterday. Late night thunderstorms tonight.

Today
High -- | Low -- °F
--% Chance of Precip.
Yesterday
High -- | Low -- °F
Precip. -- in
5:55 AM 6:57 PM
Waning Crescent, 6% visible
Pressure 30.03 in
Visibility 10.0 miles
Clouds Scattered Clouds 2200 ft
Mostly Cloudy 3400 ft
Heat Index 83 °F
Dew Point 74 °F
Humidity 83%
Rainfall 0.00 in
Snow Depth Not available.
UV 0 out of 12
Pollen Not available.
Air Quality Not available.
Flu Activity Not available.
METAR TIST 240953Z AUTO 10013KT 10SM SCT022 BKN034 28/24 A3002 RMK AO2 SLP167 T02780239 TSNO

More Conditions Fewer Conditions

Pressure 30.03 in
Visibility 10.0 miles
Clouds Scattered Clouds 2200 ft
Mostly Cloudy 3400 ft
Heat Index 83 °F
Dew Point 74 °F
Humidity 83%
Rainfall 0.00 in
Snow Depth Not available.
UV 0 out of 12
Pollen Not available.
Air Quality Not available.
Flu Activity Not available.
METAR TIST 240953Z AUTO 10013KT 10SM SCT022 BKN034 28/24 A3002 RMK AO2 SLP167 T02780239 TSNO

More Conditions Fewer Conditions

10-Day Weather Forecast

Almanac

Astronomy

Jul. 24, 2014 Rise Set
Actual Time 5:55 AM AST 6:57 PM AST
Civil Twilight 5:31 AM AST 7:20 PM AST
Nautical Twilight 5:03 AM AST 7:48 PM AST
Astronomical Twilight 4:35 AM AST 8:17 PM AST
Moon 3:56 AM AST 5:12 PM AST
Length of Visible Light 13h 49m
Length of Day
13h 02m
Tomorrow will be 0m 39s shorter.
Waning Crescent, 6% of the Moon is Illuminated
Today
Waning Crescent
Jul 26
New
Aug 3
First Quarter
Aug 10
Full
Aug 17
Last Quarter

Community

WunderPhotos

Upload Photos

1,736,966 photos uploaded!

Nearby

Snow Depth

Station Depth Elevation
No new snow has been reported.

Earthquake Activity

City Distance Mag. Time & Date
No recent earthquake activity has been reported nearby.
Minimum magnitude displayed is 2.5.

Coastal Water Temperatures

Place Temperature
Yabucoa Harbor, PR 82.9 °F
Esperanza, PR 82.0 °F
Charlotte Amalie, VI 84.9 °F

Nearby Weather Stations

Station Location Temp. Heat Index Dew Point Humidity Wind Precip. Elev Updated Type
NorthSide, St Thomas 79.2 °F 83 °F 74 °F 83% ESE  at  3.0 mph 0.00 in / hr 728 ft 6:48 AM AST Rapid Fire
Bovoni, St Thomas 81.1 °F 86 °F 74 °F 79% ENE  at  24.0 mph 0.00 in / hr 217 ft 6:48 AM AST Rapid Fire
Great Cruz Bay, St John, St John 81.0 °F 86 °F 74 °F 79% NE  at  6.0 mph 0.00 in / hr 59 ft 6:48 AM AST Normal
Sopers Hole, Tortola 82.2 °F 88 °F 74 °F 76% NE  at  5.4 mph 0.00 in / hr 36 ft 6:48 AM AST Rapid Fire
Al's Hilltop, Culebra, PR 80.6 °F 86 °F 75 °F 83% East  at  9.0 mph 0.00 in / hr 250 ft 6:45 AM AST Normal

Show More Stations Show Fewer Stations